sensor_id;sensor_type;location;lat;lon;timestamp;temperature;humidity
12156;DHT22;6141;49.092;8.516;2023-04-07T00:01:46;8.80;67.90
12156;DHT22;6141;49.092;8.516;2023-04-07T00:04:14;8.70;67.60
12156;DHT22;6141;49.092;8.516;2023-04-07T00:06:42;8.70;68.90
12156;DHT22;6141;49.092;8.516;2023-04-07T00:09:12;8.60;69.40
12156;DHT22;6141;49.092;8.516;2023-04-07T00:11:40;8.70;68.30
12156;DHT22;6141;49.092;8.516;2023-04-07T00:14:08;8.70;66.90
12156;DHT22;6141;49.092;8.516;2023-04-07T00:16:37;8.80;67.90
12156;DHT22;6141;49.092;8.516;2023-04-07T00:19:05;8.90;67.70
12156;DHT22;6141;49.092;8.516;2023-04-07T00:21:33;9.00;67.20
12156;DHT22;6141;49.092;8.516;2023-04-07T00:24:01;8.90;67.10
12156;DHT22;6141;49.092;8.516;2023-04-07T00:26:30;8.90;68.10
12156;DHT22;6141;49.092;8.516;2023-04-07T00:28:59;9.00;67.90
12156;DHT22;6141;49.092;8.516;2023-04-07T00:31:28;9.00;67.90
12156;DHT22;6141;49.092;8.516;2023-04-07T00:33:56;9.00;70.00
12156;DHT22;6141;49.092;8.516;2023-04-07T00:36:26;8.90;69.60
12156;DHT22;6141;49.092;8.516;2023-04-07T00:38:55;9.00;69.30
12156;DHT22;6141;49.092;8.516;2023-04-07T00:41:23;8.90;70.30
12156;DHT22;6141;49.092;8.516;2023-04-07T00:43:53;9.00;69.80
12156;DHT22;6141;49.092;8.516;2023-04-07T00:46:22;9.00;70.00
12156;DHT22;6141;49.092;8.516;2023-04-07T00:48:50;9.10;69.00
12156;DHT22;6141;49.092;8.516;2023-04-07T00:51:20;9.10;70.70
12156;DHT22;6141;49.092;8.516;2023-04-07T00:53:50;8.90;70.40
12156;DHT22;6141;49.092;8.516;2023-04-07T00:56:19;9.00;72.90
12156;DHT22;6141;49.092;8.516;2023-04-07T00:58:47;8.90;73.30
12156;DHT22;6141;49.092;8.516;2023-04-07T01:01:18;8.70;75.30
12156;DHT22;6141;49.092;8.516;2023-04-07T01:03:51;8.60;75.20
12156;DHT22;6141;49.092;8.516;2023-04-07T01:06:21;8.80;75.70
12156;DHT22;6141;49.092;8.516;2023-04-07T01:08:53;8.80;74.50
12156;DHT22;6141;49.092;8.516;2023-04-07T01:11:24;8.70;74.00
12156;DHT22;6141;49.092;8.516;2023-04-07T01:13:56;8.70;76.40
12156;DHT22;6141;49.092;8.516;2023-04-07T01:16:35;8.80;75.00
12156;DHT22;6141;49.092;8.516;2023-04-07T01:19:07;8.90;75.00
12156;DHT22;6141;49.092;8.516;2023-04-07T01:21:39;8.90;73.40
12156;DHT22;6141;49.092;8.516;2023-04-07T01:24:19;9.00;71.10
12156;DHT22;6141;49.092;8.516;2023-04-07T01:26:52;9.00;70.60
12156;DHT22;6141;49.092;8.516;2023-04-07T01:29:26;9.00;70.50
12156;DHT22;6141;49.092;8.516;2023-04-07T01:31:54;9.00;73.00
12156;DHT22;6141;49.092;8.516;2023-04-07T01:34:24;9.10;71.70
12156;DHT22;6141;49.092;8.516;2023-04-07T01:36:53;9.10;72.00
12156;DHT22;6141;49.092;8.516;2023-04-07T01:39:21;9.10;73.00
12156;DHT22;6141;49.092;8.516;2023-04-07T01:41:50;9.10;71.00
12156;DHT22;6141;49.092;8.516;2023-04-07T01:44:19;9.00;73.60
12156;DHT22;6141;49.092;8.516;2023-04-07T01:46:50;9.00;73.90
12156;DHT22;6141;49.092;8.516;2023-04-07T01:49:18;8.80;74.10
12156;DHT22;6141;49.092;8.516;2023-04-07T01:51:47;8.80;74.90
12156;DHT22;6141;49.092;8.516;2023-04-07T01:54:17;8.90;75.30
12156;DHT22;6141;49.092;8.516;2023-04-07T01:56:45;8.80;75.20
12156;DHT22;6141;49.092;8.516;2023-04-07T01:59:15;8.80;75.10
12156;DHT22;6141;49.092;8.516;2023-04-07T02:01:46;8.80;75.50
12156;DHT22;6141;49.092;8.516;2023-04-07T02:04:18;8.80;75.70
12156;DHT22;6141;49.092;8.516;2023-04-07T02:06:49;8.80;74.20
12156;DHT22;6141;49.092;8.516;2023-04-07T02:09:21;8.90;73.80
12156;DHT22;6141;49.092;8.516;2023-04-07T02:11:51;8.90;75.80
12156;DHT22;6141;49.092;8.516;2023-04-07T02:14:20;8.90;74.20
12156;DHT22;6141;49.092;8.516;2023-04-07T02:17:02;8.90;73.70
12156;DHT22;6141;49.092;8.516;2023-04-07T02:19:42;8.80;75.70
12156;DHT22;6141;49.092;8.516;2023-04-07T02:22:11;8.90;74.80
12156;DHT22;6141;49.092;8.516;2023-04-07T02:24:42;8.90;71.90
12156;DHT22;6141;49.092;8.516;2023-04-07T02:27:11;9.00;70.80
12156;DHT22;6141;49.092;8.516;2023-04-07T02:29:49;9.00;71.60
12156;DHT22;6141;49.092;8.516;2023-04-07T02:32:27;9.00;70.80
12156;DHT22;6141;49.092;8.516;2023-04-07T02:35:08;8.90;71.50
12156;DHT22;6141;49.092;8.516;2023-04-07T02:37:39;8.90;71.70
12156;DHT22;6141;49.092;8.516;2023-04-07T02:40:07;8.90;72.50
12156;DHT22;6141;49.092;8.516;2023-04-07T02:42:36;9.00;72.80
12156;DHT22;6141;49.092;8.516;2023-04-07T02:45:07;9.00;72.80
12156;DHT22;6141;49.092;8.516;2023-04-07T02:47:37;8.90;75.00
12156;DHT22;6141;49.092;8.516;2023-04-07T02:50:16;8.70;75.90
12156;DHT22;6141;49.092;8.516;2023-04-07T02:52:46;8.60;76.30
12156;DHT22;6141;49.092;8.516;2023-04-07T02:55:15;8.60;77.20
12156;DHT22;6141;49.092;8.516;2023-04-07T02:57:44;8.60;76.30
12156;DHT22;6141;49.092;8.516;2023-04-07T03:00:27;8.60;76.30
12156;DHT22;6141;49.092;8.516;2023-04-07T03:03:07;8.50;77.80
12156;DHT22;6141;49.092;8.516;2023-04-07T03:05:40;8.60;77.50
12156;DHT22;6141;49.092;8.516;2023-04-07T03:08:10;8.50;78.20
12156;DHT22;6141;49.092;8.516;2023-04-07T03:10:39;8.40;78.20
12156;DHT22;6141;49.092;8.516;2023-04-07T03:13:08;8.60;78.30
12156;DHT22;6141;49.092;8.516;2023-04-07T03:15:39;8.50;79.10
12156;DHT22;6141;49.092;8.516;2023-04-07T03:18:07;8.40;78.80
12156;DHT22;6141;49.092;8.516;2023-04-07T03:20:36;8.30;79.80
12156;DHT22;6141;49.092;8.516;2023-04-07T03:23:10;8.30;82.20
12156;DHT22;6141;49.092;8.516;2023-04-07T03:25:39;8.50;81.30
12156;DHT22;6141;49.092;8.516;2023-04-07T03:28:10;8.30;82.00
12156;DHT22;6141;49.092;8.516;2023-04-07T03:30:39;8.30;82.70
12156;DHT22;6141;49.092;8.516;2023-04-07T03:33:07;8.40;82.50
12156;DHT22;6141;49.092;8.516;2023-04-07T03:35:36;8.10;83.50
12156;DHT22;6141;49.092;8.516;2023-04-07T03:38:05;8.10;83.50
12156;DHT22;6141;49.092;8.516;2023-04-07T03:40:36;8.20;83.30
12156;DHT22;6141;49.092;8.516;2023-04-07T03:43:06;8.30;81.50
12156;DHT22;6141;49.092;8.516;2023-04-07T03:45:38;8.40;80.70
12156;DHT22;6141;49.092;8.516;2023-04-07T03:48:07;8.20;81.40
12156;DHT22;6141;49.092;8.516;2023-04-07T03:50:46;8.10;82.20
12156;DHT22;6141;49.092;8.516;2023-04-07T03:53:17;8.00;81.70
12156;DHT22;6141;49.092;8.516;2023-04-07T03:55:47;8.20;80.00
12156;DHT22;6141;49.092;8.516;2023-04-07T03:58:28;8.40;78.50
12156;DHT22;6141;49.092;8.516;2023-04-07T04:00:56;8.10;79.40
12156;DHT22;6141;49.092;8.516;2023-04-07T04:03:24;8.00;79.90
12156;DHT22;6141;49.092;8.516;2023-04-07T04:06:05;8.10;79.90
12156;DHT22;6141;49.092;8.516;2023-04-07T04:08:34;8.20;79.40
12156;DHT22;6141;49.092;8.516;2023-04-07T04:11:05;8.20;79.00
12156;DHT22;6141;49.092;8.516;2023-04-07T04:13:42;8.20;79.90
12156;DHT22;6141;49.092;8.516;2023-04-07T04:16:11;7.90;78.90
12156;DHT22;6141;49.092;8.516;2023-04-07T04:18:42;7.50;83.40
12156;DHT22;6141;49.092;8.516;2023-04-07T04:21:13;7.60;83.40
12156;DHT22;6141;49.092;8.516;2023-04-07T04:23:43;7.50;84.30
12156;DHT22;6141;49.092;8.516;2023-04-07T04:26:13;7.30;85.00
12156;DHT22;6141;49.092;8.516;2023-04-07T04:28:43;7.20;86.60
12156;DHT22;6141;49.092;8.516;2023-04-07T04:31:13;7.10;88.10
12156;DHT22;6141;49.092;8.516;2023-04-07T04:33:43;7.30;89.70
12156;DHT22;6141;49.092;8.516;2023-04-07T04:36:12;7.50;89.60
12156;DHT22;6141;49.092;8.516;2023-04-07T04:38:41;7.50;88.20
12156;DHT22;6141;49.092;8.516;2023-04-07T04:41:16;7.70;86.20
12156;DHT22;6141;49.092;8.516;2023-04-07T04:43:44;7.80;84.80
12156;DHT22;6141;49.092;8.516;2023-04-07T04:46:17;7.80;85.40
12156;DHT22;6141;49.092;8.516;2023-04-07T04:48:48;7.70;86.00
12156;DHT22;6141;49.092;8.516;2023-04-07T04:51:18;7.60;86.40
12156;DHT22;6141;49.092;8.516;2023-04-07T04:53:52;7.80;84.80
12156;DHT22;6141;49.092;8.516;2023-04-07T04:56:24;7.80;84.20
12156;DHT22;6141;49.092;8.516;2023-04-07T04:58:53;7.90;83.90
12156;DHT22;6141;49.092;8.516;2023-04-07T05:01:36;7.80;84.80
12156;DHT22;6141;49.092;8.516;2023-04-07T05:04:11;7.70;85.60
12156;DHT22;6141;49.092;8.516;2023-04-07T05:06:46;7.60;85.40
12156;DHT22;6141;49.092;8.516;2023-04-07T05:09:17;7.60;85.70
12156;DHT22;6141;49.092;8.516;2023-04-07T05:11:49;7.30;87.70
12156;DHT22;6141;49.092;8.516;2023-04-07T05:14:17;7.40;88.00
12156;DHT22;6141;49.092;8.516;2023-04-07T05:16:52;7.40;88.60
12156;DHT22;6141;49.092;8.516;2023-04-07T05:19:25;7.40;88.20
12156;DHT22;6141;49.092;8.516;2023-04-07T05:22:00;7.50;89.60
12156;DHT22;6141;49.092;8.516;2023-04-07T05:24:33;7.60;89.90
12156;DHT22;6141;49.092;8.516;2023-04-07T05:27:02;7.70;88.80
12156;DHT22;6141;49.092;8.516;2023-04-07T05:29:32;7.90;86.80
12156;DHT22;6141;49.092;8.516;2023-04-07T05:32:03;8.00;86.50
12156;DHT22;6141;49.092;8.516;2023-04-07T05:34:32;8.10;87.70
12156;DHT22;6141;49.092;8.516;2023-04-07T05:37:00;8.10;87.00
12156;DHT22;6141;49.092;8.516;2023-04-07T05:39:28;8.10;87.70
12156;DHT22;6141;49.092;8.516;2023-04-07T05:41:57;8.10;88.30
12156;DHT22;6141;49.092;8.516;2023-04-07T05:44:29;7.90;90.20
12156;DHT22;6141;49.092;8.516;2023-04-07T05:46:58;7.80;90.40
12156;DHT22;6141;49.092;8.516;2023-04-07T05:49:28;7.70;90.90
12156;DHT22;6141;49.092;8.516;2023-04-07T05:52:01;7.60;92.00
12156;DHT22;6141;49.092;8.516;2023-04-07T05:54:36;7.70;91.60
12156;DHT22;6141;49.092;8.516;2023-04-07T05:57:05;7.80;91.60
12156;DHT22;6141;49.092;8.516;2023-04-07T05:59:38;7.90;91.40
12156;DHT22;6141;49.092;8.516;2023-04-07T06:02:06;7.90;90.50
12156;DHT22;6141;49.092;8.516;2023-04-07T06:04:34;8.00;91.10
12156;DHT22;6141;49.092;8.516;2023-04-07T06:07:04;8.00;91.10
12156;DHT22;6141;49.092;8.516;2023-04-07T06:09:32;8.10;91.20
12156;DHT22;6141;49.092;8.516;2023-04-07T06:12:01;8.30;89.70
12156;DHT22;6141;49.092;8.516;2023-04-07T06:14:31;8.40;87.50
12156;DHT22;6141;49.092;8.516;2023-04-07T06:17:01;8.50;86.20
12156;DHT22;6141;49.092;8.516;2023-04-07T06:19:29;8.50;86.50
12156;DHT22;6141;49.092;8.516;2023-04-07T06:21:59;8.40;88.80
12156;DHT22;6141;49.092;8.516;2023-04-07T06:24:27;8.60;88.50
12156;DHT22;6141;49.092;8.516;2023-04-07T06:26:59;8.70;86.50
12156;DHT22;6141;49.092;8.516;2023-04-07T06:29:27;8.70;87.30
12156;DHT22;6141;49.092;8.516;2023-04-07T06:31:56;8.70;85.60
12156;DHT22;6141;49.092;8.516;2023-04-07T06:34:25;8.80;85.60
12156;DHT22;6141;49.092;8.516;2023-04-07T06:36:54;8.90;83.60
12156;DHT22;6141;49.092;8.516;2023-04-07T06:39:25;8.90;84.70
12156;DHT22;6141;49.092;8.516;2023-04-07T06:41:53;9.00;84.40
12156;DHT22;6141;49.092;8.516;2023-04-07T06:44:22;9.40;85.10
12156;DHT22;6141;49.092;8.516;2023-04-07T06:46:50;9.50;80.20
12156;DHT22;6141;49.092;8.516;2023-04-07T06:49:21;9.90;78.70
12156;DHT22;6141;49.092;8.516;2023-04-07T06:51:50;10.30;70.20
12156;DHT22;6141;49.092;8.516;2023-04-07T06:54:18;10.60;68.10
12156;DHT22;6141;49.092;8.516;2023-04-07T06:56:47;10.50;64.20
12156;DHT22;6141;49.092;8.516;2023-04-07T06:59:15;10.80;64.70
12156;DHT22;6141;49.092;8.516;2023-04-07T07:01:43;10.70;62.80
12156;DHT22;6141;49.092;8.516;2023-04-07T07:04:13;10.60;62.60
12156;DHT22;6141;49.092;8.516;2023-04-07T07:06:41;10.20;62.00
12156;DHT22;6141;49.092;8.516;2023-04-07T07:09:11;10.40;62.80
12156;DHT22;6141;49.092;8.516;2023-04-07T07:11:39;10.50;61.80
12156;DHT22;6141;49.092;8.516;2023-04-07T07:14:08;10.10;63.30
12156;DHT22;6141;49.092;8.516;2023-04-07T07:16:37;10.00;63.60
12156;DHT22;6141;49.092;8.516;2023-04-07T07:19:05;10.00;64.40
12156;DHT22;6141;49.092;8.516;2023-04-07T07:21:34;10.20;64.70
12156;DHT22;6141;49.092;8.516;2023-04-07T07:24:02;10.30;62.70
12156;DHT22;6141;49.092;8.516;2023-04-07T07:26:31;10.80;61.50
12156;DHT22;6141;49.092;8.516;2023-04-07T07:28:59;11.20;61.50
12156;DHT22;6141;49.092;8.516;2023-04-07T07:31:27;11.10;58.60
12156;DHT22;6141;49.092;8.516;2023-04-07T07:33:57;10.80;60.40
12156;DHT22;6141;49.092;8.516;2023-04-07T07:36:25;10.70;62.00
12156;DHT22;6141;49.092;8.516;2023-04-07T07:38:55;11.00;63.80
12156;DHT22;6141;49.092;8.516;2023-04-07T07:41:23;11.00;61.20
12156;DHT22;6141;49.092;8.516;2023-04-07T07:43:53;11.20;60.50
12156;DHT22;6141;49.092;8.516;2023-04-07T07:46:21;11.50;60.70
12156;DHT22;6141;49.092;8.516;2023-04-07T07:48:51;11.80;58.60
12156;DHT22;6141;49.092;8.516;2023-04-07T07:51:20;11.80;56.10
12156;DHT22;6141;49.092;8.516;2023-04-07T07:53:50;12.20;57.10
12156;DHT22;6141;49.092;8.516;2023-04-07T07:56:18;11.90;55.40
12156;DHT22;6141;49.092;8.516;2023-04-07T07:58:48;11.70;57.00
12156;DHT22;6141;49.092;8.516;2023-04-07T08:01:18;11.40;58.50
12156;DHT22;6141;49.092;8.516;2023-04-07T08:03:47;11.70;58.50
12156;DHT22;6141;49.092;8.516;2023-04-07T08:06:15;11.80;58.50
12156;DHT22;6141;49.092;8.516;2023-04-07T08:08:44;11.30;58.10
12156;DHT22;6141;49.092;8.516;2023-04-07T08:11:12;11.80;59.60
12156;DHT22;6141;49.092;8.516;2023-04-07T08:13:40;12.00;59.00
12156;DHT22;6141;49.092;8.516;2023-04-07T08:16:12;11.70;55.30
12156;DHT22;6141;49.092;8.516;2023-04-07T08:18:42;12.00;58.80
12156;DHT22;6141;49.092;8.516;2023-04-07T08:21:10;12.20;52.60
12156;DHT22;6141;49.092;8.516;2023-04-07T08:23:39;12.60;53.40
12156;DHT22;6141;49.092;8.516;2023-04-07T08:26:07;12.80;53.10
12156;DHT22;6141;49.092;8.516;2023-04-07T08:28:36;12.90;53.00
12156;DHT22;6141;49.092;8.516;2023-04-07T08:31:05;13.30;48.00
12156;DHT22;6141;49.092;8.516;2023-04-07T08:33:34;13.00;50.50
12156;DHT22;6141;49.092;8.516;2023-04-07T08:36:04;12.80;48.20
12156;DHT22;6141;49.092;8.516;2023-04-07T08:38:33;13.00;49.10
12156;DHT22;6141;49.092;8.516;2023-04-07T08:41:02;13.10;47.80
12156;DHT22;6141;49.092;8.516;2023-04-07T08:43:31;13.40;48.10
12156;DHT22;6141;49.092;8.516;2023-04-07T08:46:00;13.90;46.90
12156;DHT22;6141;49.092;8.516;2023-04-07T08:48:29;13.80;45.10
12156;DHT22;6141;49.092;8.516;2023-04-07T08:51:01;13.70;44.50
12156;DHT22;6141;49.092;8.516;2023-04-07T08:53:33;14.00;46.00
12156;DHT22;6141;49.092;8.516;2023-04-07T08:56:02;14.20;43.50
12156;DHT22;6141;49.092;8.516;2023-04-07T08:58:34;14.20;43.60
12156;DHT22;6141;49.092;8.516;2023-04-07T09:01:02;14.20;41.10
12156;DHT22;6141;49.092;8.516;2023-04-07T09:03:32;13.80;45.80
12156;DHT22;6141;49.092;8.516;2023-04-07T09:06:01;14.20;42.60
12156;DHT22;6141;49.092;8.516;2023-04-07T09:08:30;14.00;44.60
12156;DHT22;6141;49.092;8.516;2023-04-07T09:10:59;14.30;42.20
12156;DHT22;6141;49.092;8.516;2023-04-07T09:13:27;14.10;37.80
12156;DHT22;6141;49.092;8.516;2023-04-07T09:15:58;14.30;41.60
12156;DHT22;6141;49.092;8.516;2023-04-07T09:18:27;14.30;40.40
12156;DHT22;6141;49.092;8.516;2023-04-07T09:20:55;14.60;40.60
12156;DHT22;6141;49.092;8.516;2023-04-07T09:23:27;14.80;41.60
12156;DHT22;6141;49.092;8.516;2023-04-07T09:26:00;14.80;40.70
12156;DHT22;6141;49.092;8.516;2023-04-07T09:28:40;14.10;39.10
12156;DHT22;6141;49.092;8.516;2023-04-07T09:31:08;14.20;41.60
12156;DHT22;6141;49.092;8.516;2023-04-07T09:33:36;14.60;39.60
12156;DHT22;6141;49.092;8.516;2023-04-07T09:36:05;14.30;36.40
12156;DHT22;6141;49.092;8.516;2023-04-07T09:38:34;14.40;37.50
12156;DHT22;6141;49.092;8.516;2023-04-07T09:41:08;15.00;38.80
12156;DHT22;6141;49.092;8.516;2023-04-07T09:43:38;15.00;41.40
12156;DHT22;6141;49.092;8.516;2023-04-07T09:46:10;15.20;39.30
12156;DHT22;6141;49.092;8.516;2023-04-07T09:48:39;14.60;37.50
12156;DHT22;6141;49.092;8.516;2023-04-07T09:51:10;14.50;39.80
12156;DHT22;6141;49.092;8.516;2023-04-07T09:53:42;14.70;36.80
12156;DHT22;6141;49.092;8.516;2023-04-07T09:56:12;15.10;38.10
12156;DHT22;6141;49.092;8.516;2023-04-07T09:58:42;15.00;37.10
12156;DHT22;6141;49.092;8.516;2023-04-07T10:01:11;15.00;36.30
12156;DHT22;6141;49.092;8.516;2023-04-07T10:03:39;15.60;40.10
12156;DHT22;6141;49.092;8.516;2023-04-07T10:06:08;15.90;37.30
12156;DHT22;6141;49.092;8.516;2023-04-07T10:08:37;15.20;35.80
12156;DHT22;6141;49.092;8.516;2023-04-07T10:11:05;14.60;36.70
12156;DHT22;6141;49.092;8.516;2023-04-07T10:13:37;14.40;36.40
12156;DHT22;6141;49.092;8.516;2023-04-07T10:16:06;14.40;37.80
12156;DHT22;6141;49.092;8.516;2023-04-07T10:18:35;14.60;38.80
12156;DHT22;6141;49.092;8.516;2023-04-07T10:21:05;14.20;37.40
12156;DHT22;6141;49.092;8.516;2023-04-07T10:23:38;14.30;38.80
12156;DHT22;6141;49.092;8.516;2023-04-07T10:26:07;14.20;38.60
12156;DHT22;6141;49.092;8.516;2023-04-07T10:28:37;14.00;36.00
12156;DHT22;6141;49.092;8.516;2023-04-07T10:31:07;14.00;39.50
12156;DHT22;6141;49.092;8.516;2023-04-07T10:33:43;13.80;39.10
12156;DHT22;6141;49.092;8.516;2023-04-07T10:36:12;13.70;42.00
12156;DHT22;6141;49.092;8.516;2023-04-07T10:38:40;13.70;40.20
12156;DHT22;6141;49.092;8.516;2023-04-07T10:43:57;14.00;40.80
12156;DHT22;6141;49.092;8.516;2023-04-07T10:46:25;14.10;38.10
12156;DHT22;6141;49.092;8.516;2023-04-07T10:49:14;14.60;38.30
12156;DHT22;6141;49.092;8.516;2023-04-07T10:51:45;14.80;38.10
12156;DHT22;6141;49.092;8.516;2023-04-07T10:54:33;15.00;37.10
12156;DHT22;6141;49.092;8.516;2023-04-07T10:57:11;15.10;37.70
12156;DHT22;6141;49.092;8.516;2023-04-07T10:59:42;15.10;37.20
12156;DHT22;6141;49.092;8.516;2023-04-07T11:02:33;14.50;35.10
12156;DHT22;6141;49.092;8.516;2023-04-07T11:05:03;15.00;37.80
12156;DHT22;6141;49.092;8.516;2023-04-07T11:07:45;15.00;37.40
12156;DHT22;6141;49.092;8.516;2023-04-07T11:10:14;15.20;39.50
12156;DHT22;6141;49.092;8.516;2023-04-07T11:13:02;15.70;35.30
12156;DHT22;6141;49.092;8.516;2023-04-07T11:15:32;15.40;34.00
12156;DHT22;6141;49.092;8.516;2023-04-07T11:18:05;15.10;36.60
12156;DHT22;6141;49.092;8.516;2023-04-07T11:20:40;15.50;37.60
12156;DHT22;6141;49.092;8.516;2023-04-07T11:23:11;15.50;34.30
12156;DHT22;6141;49.092;8.516;2023-04-07T11:25:41;15.70;33.00
12156;DHT22;6141;49.092;8.516;2023-04-07T11:28:09;15.80;33.10
12156;DHT22;6141;49.092;8.516;2023-04-07T11:30:43;16.00;30.50
12156;DHT22;6141;49.092;8.516;2023-04-07T11:33:16;16.20;34.00
12156;DHT22;6141;49.092;8.516;2023-04-07T11:35:51;16.20;33.60
12156;DHT22;6141;49.092;8.516;2023-04-07T11:38:21;15.70;36.10
12156;DHT22;6141;49.092;8.516;2023-04-07T11:40:50;15.60;34.30
12156;DHT22;6141;49.092;8.516;2023-04-07T11:43:19;15.70;35.10
12156;DHT22;6141;49.092;8.516;2023-04-07T11:46:05;15.70;31.30
12156;DHT22;6141;49.092;8.516;2023-04-07T11:48:34;15.40;29.90
12156;DHT22;6141;49.092;8.516;2023-04-07T11:51:04;14.50;35.20
12156;DHT22;6141;49.092;8.516;2023-04-07T11:53:34;14.30;37.20
12156;DHT22;6141;49.092;8.516;2023-04-07T11:56:04;13.90;37.30
12156;DHT22;6141;49.092;8.516;2023-04-07T11:58:35;13.50;38.80
12156;DHT22;6141;49.092;8.516;2023-04-07T12:01:06;13.20;40.80
12156;DHT22;6141;49.092;8.516;2023-04-07T12:03:35;13.20;40.90
12156;DHT22;6141;49.092;8.516;2023-04-07T12:06:04;13.20;42.60
12156;DHT22;6141;49.092;8.516;2023-04-07T12:08:36;13.20;42.90
12156;DHT22;6141;49.092;8.516;2023-04-07T12:11:04;13.30;42.70
12156;DHT22;6141;49.092;8.516;2023-04-07T12:13:34;13.10;44.10
12156;DHT22;6141;49.092;8.516;2023-04-07T12:16:02;13.10;42.70
12156;DHT22;6141;49.092;8.516;2023-04-07T12:18:32;13.10;44.60
12156;DHT22;6141;49.092;8.516;2023-04-07T12:21:00;13.10;44.00
12156;DHT22;6141;49.092;8.516;2023-04-07T12:23:31;12.80;41.20
12156;DHT22;6141;49.092;8.516;2023-04-07T12:25:59;12.70;41.20
12156;DHT22;6141;49.092;8.516;2023-04-07T12:28:29;12.80;43.00
12156;DHT22;6141;49.092;8.516;2023-04-07T12:30:57;12.80;42.50
12156;DHT22;6141;49.092;8.516;2023-04-07T12:33:25;12.90;42.80
12156;DHT22;6141;49.092;8.516;2023-04-07T12:35:55;13.00;43.40
12156;DHT22;6141;49.092;8.516;2023-04-07T12:38:24;13.30;43.50
12156;DHT22;6141;49.092;8.516;2023-04-07T12:40:52;13.50;40.90
12156;DHT22;6141;49.092;8.516;2023-04-07T12:43:21;13.50;39.70
12156;DHT22;6141;49.092;8.516;2023-04-07T12:45:49;13.40;40.00
12156;DHT22;6141;49.092;8.516;2023-04-07T12:48:19;13.10;40.40
12156;DHT22;6141;49.092;8.516;2023-04-07T12:50:47;13.30;41.70
12156;DHT22;6141;49.092;8.516;2023-04-07T12:53:18;13.60;42.80
12156;DHT22;6141;49.092;8.516;2023-04-07T12:55:46;13.60;38.10
12156;DHT22;6141;49.092;8.516;2023-04-07T12:58:18;13.60;39.30
12156;DHT22;6141;49.092;8.516;2023-04-07T13:00:46;13.80;39.20
12156;DHT22;6141;49.092;8.516;2023-04-07T13:03:14;13.80;37.00
12156;DHT22;6141;49.092;8.516;2023-04-07T13:05:43;13.90;36.00
12156;DHT22;6141;49.092;8.516;2023-04-07T13:08:11;13.90;37.30
12156;DHT22;6141;49.092;8.516;2023-04-07T13:10:42;14.10;35.30
12156;DHT22;6141;49.092;8.516;2023-04-07T13:13:10;14.00;36.10
12156;DHT22;6141;49.092;8.516;2023-04-07T13:15:38;14.00;33.90
12156;DHT22;6141;49.092;8.516;2023-04-07T13:18:07;14.10;33.70
12156;DHT22;6141;49.092;8.516;2023-04-07T13:20:35;14.10;34.10
12156;DHT22;6141;49.092;8.516;2023-04-07T13:23:04;14.10;34.00
12156;DHT22;6141;49.092;8.516;2023-04-07T13:25:37;14.30;34.00
12156;DHT22;6141;49.092;8.516;2023-04-07T13:28:07;14.40;33.70
12156;DHT22;6141;49.092;8.516;2023-04-07T13:30:35;14.40;32.80
12156;DHT22;6141;49.092;8.516;2023-04-07T13:33:03;14.20;33.10
12156;DHT22;6141;49.092;8.516;2023-04-07T13:35:31;14.00;33.00
12156;DHT22;6141;49.092;8.516;2023-04-07T13:38:02;13.90;34.70
12156;DHT22;6141;49.092;8.516;2023-04-07T13:40:30;13.90;34.60
12156;DHT22;6141;49.092;8.516;2023-04-07T13:42:58;14.20;34.50
12156;DHT22;6141;49.092;8.516;2023-04-07T13:45:28;14.10;34.40
12156;DHT22;6141;49.092;8.516;2023-04-07T13:47:56;14.00;37.60
12156;DHT22;6141;49.092;8.516;2023-04-07T13:50:25;14.20;36.20
12156;DHT22;6141;49.092;8.516;2023-04-07T13:52:53;14.40;36.20
12156;DHT22;6141;49.092;8.516;2023-04-07T13:55:21;14.30;34.70
12156;DHT22;6141;49.092;8.516;2023-04-07T13:57:49;14.20;36.20
12156;DHT22;6141;49.092;8.516;2023-04-07T14:00:18;14.20;36.20
12156;DHT22;6141;49.092;8.516;2023-04-07T14:02:48;14.20;36.20
12156;DHT22;6141;49.092;8.516;2023-04-07T14:05:16;14.10;36.20
12156;DHT22;6141;49.092;8.516;2023-04-07T14:07:45;14.10;39.10
12156;DHT22;6141;49.092;8.516;2023-04-07T14:10:13;14.10;38.40
12156;DHT22;6141;49.092;8.516;2023-04-07T14:12:41;14.20;40.60
12156;DHT22;6141;49.092;8.516;2023-04-07T14:15:10;14.30;37.90
12156;DHT22;6141;49.092;8.516;2023-04-07T14:17:39;14.00;41.40
12156;DHT22;6141;49.092;8.516;2023-04-07T14:20:08;13.80;39.50
12156;DHT22;6141;49.092;8.516;2023-04-07T14:22:37;14.00;40.10
12156;DHT22;6141;49.092;8.516;2023-04-07T14:25:06;14.20;39.10
12156;DHT22;6141;49.092;8.516;2023-04-07T14:27:34;14.80;36.80
12156;DHT22;6141;49.092;8.516;2023-04-07T14:30:04;15.10;37.20
12156;DHT22;6141;49.092;8.516;2023-04-07T14:32:32;15.10;37.20
12156;DHT22;6141;49.092;8.516;2023-04-07T14:35:00;15.00;37.10
12156;DHT22;6141;49.092;8.516;2023-04-07T14:37:30;15.50;37.60
12156;DHT22;6141;49.092;8.516;2023-04-07T14:39:58;15.50;36.40
12156;DHT22;6141;49.092;8.516;2023-04-07T14:42:29;15.30;40.00
12156;DHT22;6141;49.092;8.516;2023-04-07T14:44:58;15.10;37.20
12156;DHT22;6141;49.092;8.516;2023-04-07T14:47:27;14.70;40.00
12156;DHT22;6141;49.092;8.516;2023-04-07T14:49:55;14.60;39.50
12156;DHT22;6141;49.092;8.516;2023-04-07T14:52:25;14.70;39.50
12156;DHT22;6141;49.092;8.516;2023-04-07T14:54:55;14.60;40.40
12156;DHT22;6141;49.092;8.516;2023-04-07T14:57:26;14.10;42.50
12156;DHT22;6141;49.092;8.516;2023-04-07T14:59:54;14.40;44.00
12156;DHT22;6141;49.092;8.516;2023-04-07T15:02:22;14.60;40.60
12156;DHT22;6141;49.092;8.516;2023-04-07T15:04:51;14.30;39.20
12156;DHT22;6141;49.092;8.516;2023-04-07T15:07:20;14.40;40.00
12156;DHT22;6141;49.092;8.516;2023-04-07T15:09:49;14.10;42.50
12156;DHT22;6141;49.092;8.516;2023-04-07T15:12:19;14.00;45.40
12156;DHT22;6141;49.092;8.516;2023-04-07T15:14:49;14.20;45.50
12156;DHT22;6141;49.092;8.516;2023-04-07T15:17:17;14.30;45.90
12156;DHT22;6141;49.092;8.516;2023-04-07T15:19:58;14.30;45.60
12156;DHT22;6141;49.092;8.516;2023-04-07T15:22:27;14.60;46.60
12156;DHT22;6141;49.092;8.516;2023-04-07T15:24:56;14.30;44.40
12156;DHT22;6141;49.092;8.516;2023-04-07T15:27:27;14.20;45.90
12156;DHT22;6141;49.092;8.516;2023-04-07T15:29:55;14.00;45.70
12156;DHT22;6141;49.092;8.516;2023-04-07T15:32:23;14.00;49.30
12156;DHT22;6141;49.092;8.516;2023-04-07T15:34:51;14.10;48.60
12156;DHT22;6141;49.092;8.516;2023-04-07T15:37:19;14.00;47.90
12156;DHT22;6141;49.092;8.516;2023-04-07T15:39:49;14.00;48.70
12156;DHT22;6141;49.092;8.516;2023-04-07T15:42:17;14.00;47.40
12156;DHT22;6141;49.092;8.516;2023-04-07T15:44:47;14.10;47.30
12156;DHT22;6141;49.092;8.516;2023-04-07T15:47:15;14.00;47.00
12156;DHT22;6141;49.092;8.516;2023-04-07T15:49:43;13.80;45.50
12156;DHT22;6141;49.092;8.516;2023-04-07T15:52:11;13.60;48.00
12156;DHT22;6141;49.092;8.516;2023-04-07T15:54:40;13.70;48.40
12156;DHT22;6141;49.092;8.516;2023-04-07T15:57:10;13.70;46.80
12156;DHT22;6141;49.092;8.516;2023-04-07T15:59:38;13.70;45.50
12156;DHT22;6141;49.092;8.516;2023-04-07T16:02:08;13.80;46.00
12156;DHT22;6141;49.092;8.516;2023-04-07T16:04:39;13.90;47.00
12156;DHT22;6141;49.092;8.516;2023-04-07T16:07:26;13.80;46.10
12156;DHT22;6141;49.092;8.516;2023-04-07T16:10:15;13.80;45.20
12156;DHT22;6141;49.092;8.516;2023-04-07T16:13:05;13.60;44.00
12156;DHT22;6141;49.092;8.516;2023-04-07T16:15:54;13.40;44.90